createdAt,value
2022-10-29T00:01:44.639Z,17.80
2022-10-29T00:05:10.326Z,17.70
2022-10-29T00:08:37.682Z,17.70
2022-10-29T00:12:01.138Z,17.70
2022-10-29T00:15:24.566Z,17.60
2022-10-29T00:18:48.691Z,17.60
2022-10-29T00:22:13.454Z,17.70
2022-10-29T00:25:36.937Z,17.60
2022-10-29T00:29:00.351Z,17.60
2022-10-29T00:32:23.996Z,17.50
2022-10-29T00:35:57.171Z,17.50
2022-10-29T00:39:21.984Z,17.40
2022-10-29T00:42:45.424Z,17.40
2022-10-29T00:46:13.758Z,17.40
2022-10-29T00:49:40.621Z,17.30
2022-10-29T00:53:04.443Z,17.30
2022-10-29T00:56:34.786Z,17.30
2022-10-29T00:59:58.562Z,17.20
2022-10-29T01:03:22.149Z,17.20
2022-10-29T01:06:47.073Z,17.10
2022-10-29T01:10:12.465Z,17.10
2022-10-29T01:14:00.579Z,17.10
2022-10-29T01:17:34.394Z,17.10
2022-10-29T01:21:43.410Z,17.10
2022-10-29T01:25:53.988Z,17.10
2022-10-29T01:29:38.541Z,17.10
2022-10-29T01:33:15.570Z,17.20
2022-10-29T01:36:50.013Z,17.20
2022-10-29T01:40:25.501Z,17.20
2022-10-29T01:43:56.529Z,17.20
2022-10-29T01:47:23.021Z,17.20
2022-10-29T01:50:55.752Z,17.20
2022-10-29T01:54:19.231Z,17.30
2022-10-29T01:57:42.708Z,17.20
2022-10-29T02:01:29.558Z,17.20
2022-10-29T02:05:13.131Z,17.20
2022-10-29T02:08:55.314Z,17.20
2022-10-29T02:12:26.826Z,17.20
2022-10-29T02:15:56.609Z,17.20
2022-10-29T02:19:20.521Z,17.20
2022-10-29T02:22:44.594Z,17.20
2022-10-29T02:26:09.548Z,17.20
2022-10-29T02:29:32.962Z,17.20
2022-10-29T02:32:56.796Z,17.20
2022-10-29T02:36:20.393Z,17.20
2022-10-29T02:39:43.886Z,17.20
2022-10-29T02:43:08.763Z,17.20
2022-10-29T02:46:35.924Z,17.20
2022-10-29T02:49:59.367Z,17.30
2022-10-29T02:53:22.739Z,17.30
2022-10-29T02:56:46.137Z,17.30
2022-10-29T03:00:13.458Z,17.30
2022-10-29T03:03:37.093Z,17.40
2022-10-29T03:07:01.214Z,17.40
2022-10-29T03:10:24.600Z,17.40
2022-10-29T03:13:48.141Z,17.40
2022-10-29T03:17:12.962Z,17.40
2022-10-29T03:20:36.445Z,17.40
2022-10-29T03:23:59.931Z,17.40
2022-10-29T03:27:23.415Z,17.40
2022-10-29T03:30:46.903Z,17.40
2022-10-29T03:34:11.694Z,17.40
2022-10-29T03:37:35.175Z,17.40
2022-10-29T03:40:58.948Z,17.50
2022-10-29T03:44:22.730Z,17.40
2022-10-29T03:47:46.159Z,17.40
2022-10-29T03:51:11.921Z,17.40
2022-10-29T03:54:35.521Z,17.30
2022-10-29T03:57:59.252Z,17.30
2022-10-29T04:01:22.891Z,17.30
2022-10-29T04:04:46.471Z,17.30
2022-10-29T04:08:11.227Z,17.30
2022-10-29T04:11:34.673Z,17.30
2022-10-29T04:14:58.154Z,17.30
2022-10-29T04:18:21.646Z,17.30
2022-10-29T04:29:13.824Z,17.30
2022-10-29T04:32:37.281Z,17.30
2022-10-29T04:36:00.881Z,17.30
2022-10-29T04:39:24.352Z,17.30
2022-10-29T04:42:49.142Z,17.30
2022-10-29T04:46:12.917Z,17.20
2022-10-29T04:49:36.360Z,17.20
2022-10-29T04:53:00.434Z,17.20
2022-10-29T04:56:23.898Z,17.10
2022-10-29T04:59:48.691Z,17.10
2022-10-29T05:03:12.177Z,17.10
2022-10-29T05:06:35.638Z,17.00
2022-10-29T05:09:59.046Z,16.90
2022-10-29T05:13:22.491Z,16.90
2022-10-29T05:16:47.289Z,16.80
2022-10-29T05:20:12.202Z,16.80
2022-10-29T05:23:35.629Z,16.80
2022-10-29T05:26:59.050Z,16.70
2022-10-29T05:30:22.453Z,16.70
2022-10-29T05:33:49.896Z,16.60
2022-10-29T05:37:15.903Z,16.60
2022-10-29T05:40:40.568Z,16.60
2022-10-29T05:44:04.219Z,16.50
2022-10-29T05:47:27.609Z,16.50
2022-10-29T05:50:52.410Z,16.40
2022-10-29T05:54:15.873Z,16.40
2022-10-29T05:57:39.320Z,16.30
2022-10-29T06:01:07.235Z,16.30
2022-10-29T06:04:30.751Z,16.30
2022-10-29T06:08:01.304Z,16.20
2022-10-29T06:11:24.866Z,16.20
2022-10-29T06:14:48.398Z,16.20
2022-10-29T06:18:12.522Z,16.20
2022-10-29T06:21:36.401Z,16.20
2022-10-29T06:25:01.783Z,16.20
2022-10-29T06:28:27.139Z,16.10
2022-10-29T06:31:52.557Z,16.20
2022-10-29T06:35:16.374Z,16.20
2022-10-29T06:38:39.793Z,16.20
2022-10-29T06:42:05.018Z,16.20
2022-10-29T06:45:29.137Z,16.30
2022-10-29T06:48:52.514Z,16.30
2022-10-29T06:52:15.921Z,16.30
2022-10-29T06:55:39.644Z,16.30
2022-10-29T06:59:04.433Z,16.30
2022-10-29T07:02:28.210Z,16.30
2022-10-29T07:05:57.509Z,16.40
2022-10-29T07:09:21.237Z,16.40
2022-10-29T07:12:45.647Z,16.40
2022-10-29T07:16:12.055Z,14.00
2022-10-29T07:19:35.493Z,16.50
2022-10-29T07:22:59.284Z,16.50
2022-10-29T07:26:22.793Z,16.60
2022-10-29T07:29:46.214Z,16.60
2022-10-29T07:33:11.135Z,16.70
2022-10-29T07:36:35.054Z,16.80
2022-10-29T07:39:58.628Z,16.90
2022-10-29T07:43:23.244Z,16.90
2022-10-29T07:46:46.824Z,17.00
2022-10-29T07:50:12.792Z,17.10
2022-10-29T07:53:36.287Z,17.10
2022-10-29T07:56:59.804Z,17.20
2022-10-29T08:00:23.378Z,17.30
2022-10-29T08:03:46.987Z,17.50
2022-10-29T08:07:11.829Z,17.80
2022-10-29T08:10:37.035Z,18.20
2022-10-29T08:14:00.972Z,18.50
2022-10-29T08:17:24.536Z,18.90
2022-10-29T08:20:47.997Z,19.10
2022-10-29T08:24:12.970Z,19.30
2022-10-29T08:27:36.739Z,19.50
2022-10-29T08:31:00.259Z,19.80
2022-10-29T08:34:23.759Z,20.10
2022-10-29T08:37:47.548Z,20.40
2022-10-29T08:41:35.765Z,20.60
2022-10-29T08:45:16.736Z,20.80
2022-10-29T08:48:49.671Z,20.90
2022-10-29T08:52:20.215Z,21.00
2022-10-29T08:55:45.400Z,21.10
2022-10-29T08:59:15.831Z,21.20
2022-10-29T09:02:40.237Z,21.30
2022-10-29T09:06:13.936Z,21.40
2022-10-29T09:09:44.458Z,21.60
2022-10-29T09:13:30.164Z,21.60
2022-10-29T09:17:02.811Z,21.70
2022-10-29T09:20:44.036Z,21.80
2022-10-29T09:24:19.160Z,21.80
2022-10-29T09:28:06.525Z,21.80
2022-10-29T09:31:41.422Z,21.80
2022-10-29T09:35:14.659Z,21.80
2022-10-29T09:38:46.715Z,21.80
2022-10-29T09:42:16.307Z,21.80
2022-10-29T09:45:49.221Z,21.70
2022-10-29T09:49:36.011Z,21.70
2022-10-29T09:53:01.286Z,21.70
2022-10-29T09:56:24.826Z,21.60
2022-10-29T09:59:54.889Z,21.60
2022-10-29T10:03:27.882Z,21.70
2022-10-29T10:07:08.563Z,22.10
2022-10-29T10:10:35.417Z,22.90
2022-10-29T10:14:01.667Z,23.70
2022-10-29T10:17:25.196Z,24.70
2022-10-29T10:21:02.144Z,25.70
2022-10-29T10:24:33.791Z,26.70
2022-10-29T10:27:59.265Z,27.70
2022-10-29T10:31:22.916Z,28.50
2022-10-29T10:34:46.533Z,29.30
2022-10-29T10:38:11.848Z,29.90
2022-10-29T10:41:37.023Z,30.50
2022-10-29T10:45:14.477Z,31.10
2022-10-29T10:48:38.017Z,31.60
2022-10-29T10:52:06.557Z,32.10
2022-10-29T10:55:34.599Z,32.40
2022-10-29T10:59:07.816Z,32.70
2022-10-29T11:02:44.636Z,32.90
2022-10-29T11:06:16.468Z,33.00
2022-10-29T11:09:46.422Z,33.00
2022-10-29T11:13:17.247Z,32.90
2022-10-29T11:16:48.059Z,32.70
2022-10-29T11:20:27.950Z,32.50
2022-10-29T11:24:02.075Z,32.20
2022-10-29T11:27:40.715Z,31.80
2022-10-29T11:31:17.473Z,31.40
2022-10-29T11:34:55.054Z,30.80
2022-10-29T11:38:25.546Z,30.30
2022-10-29T11:41:58.797Z,29.70
2022-10-29T11:45:35.015Z,29.30
2022-10-29T11:49:16.434Z,28.70
2022-10-29T11:52:49.571Z,28.30
2022-10-29T11:56:33.431Z,27.90
2022-10-29T12:00:13.463Z,27.60
2022-10-29T12:07:52.554Z,27.00
2022-10-29T12:11:26.128Z,26.80
2022-10-29T12:15:03.039Z,26.60
2022-10-29T12:18:38.659Z,26.50
2022-10-29T12:22:17.073Z,26.40
2022-10-29T12:26:05.567Z,26.30
2022-10-29T12:29:44.159Z,26.30
2022-10-29T12:33:19.755Z,26.20
2022-10-29T12:36:57.513Z,26.20
2022-10-29T12:40:26.314Z,26.10
2022-10-29T12:43:52.324Z,26.10
2022-10-29T12:47:24.751Z,26.10
2022-10-29T12:51:02.797Z,26.10
2022-10-29T12:54:39.553Z,25.90
2022-10-29T12:58:50.091Z,25.90
2022-10-29T13:02:43.431Z,25.80
2022-10-29T13:06:45.288Z,25.80
2022-10-29T13:10:53.450Z,25.80
2022-10-29T13:14:25.739Z,25.70
2022-10-29T13:17:53.912Z,25.70
2022-10-29T13:22:01.880Z,25.70
2022-10-29T13:25:43.250Z,25.50
2022-10-29T13:29:08.971Z,25.50
2022-10-29T13:32:37.870Z,25.50
2022-10-29T13:36:05.358Z,25.40
2022-10-29T13:39:28.832Z,25.40
2022-10-29T13:43:01.189Z,25.30
2022-10-29T13:46:42.560Z,25.30
2022-10-29T13:50:09.218Z,25.30
2022-10-29T13:53:44.822Z,25.20
2022-10-29T13:57:20.354Z,25.20
2022-10-29T14:00:47.418Z,25.20
2022-10-29T14:04:25.200Z,25.20
2022-10-29T14:07:56.225Z,25.20
2022-10-29T14:11:28.519Z,25.20
2022-10-29T14:15:04.857Z,25.20
2022-10-29T14:18:28.867Z,25.20
2022-10-29T14:21:52.986Z,25.20
2022-10-29T14:25:31.668Z,25.20
2022-10-29T14:28:56.568Z,25.10
2022-10-29T14:32:22.616Z,25.10
2022-10-29T14:35:48.540Z,25.00
2022-10-29T14:39:28.799Z,25.00
2022-10-29T14:42:57.997Z,25.00
2022-10-29T14:46:28.185Z,24.90
2022-10-29T14:49:55.179Z,24.80
2022-10-29T14:53:31.895Z,24.70
2022-10-29T14:57:00.436Z,24.60
2022-10-29T15:00:27.607Z,24.60
2022-10-29T15:03:59.336Z,24.50
2022-10-29T15:07:35.650Z,24.40
2022-10-29T15:11:00.021Z,24.30
2022-10-29T15:14:34.099Z,24.10
2022-10-29T15:18:04.195Z,24.10
2022-10-29T15:21:32.197Z,23.90
2022-10-29T15:24:57.168Z,23.80
2022-10-29T15:28:25.601Z,23.70
2022-10-29T15:31:50.526Z,23.60
2022-10-29T15:35:23.575Z,23.50
2022-10-29T15:39:22.880Z,23.40
2022-10-29T15:42:46.691Z,23.30
2022-10-29T15:46:12.497Z,23.20
2022-10-29T15:49:35.993Z,23.20
2022-10-29T15:53:05.709Z,23.10
2022-10-29T15:56:32.734Z,23.00
2022-10-29T15:59:57.335Z,22.90
2022-10-29T16:03:23.041Z,22.80
2022-10-29T16:06:46.652Z,22.70
2022-10-29T16:10:17.975Z,22.50
2022-10-29T16:13:43.752Z,22.50
2022-10-29T16:17:15.305Z,22.30
2022-10-29T16:20:39.043Z,22.20
2022-10-29T16:24:02.691Z,22.10
2022-10-29T16:27:26.097Z,22.00
2022-10-29T16:30:56.394Z,21.90
2022-10-29T16:34:23.728Z,21.80
2022-10-29T16:37:49.083Z,21.80
2022-10-29T16:41:14.898Z,21.70
2022-10-29T16:44:38.339Z,21.60
2022-10-29T16:48:06.514Z,21.60
2022-10-29T16:51:29.987Z,21.50
2022-10-29T16:54:53.415Z,21.60
2022-10-29T16:58:18.920Z,21.40
2022-10-29T17:01:45.364Z,21.20
2022-10-29T17:05:11.150Z,21.20
2022-10-29T17:08:36.046Z,21.20
2022-10-29T17:11:59.451Z,21.20
2022-10-29T17:15:22.933Z,21.20
2022-10-29T17:18:50.594Z,21.20
2022-10-29T17:22:16.225Z,21.20
2022-10-29T17:25:41.579Z,21.20
2022-10-29T17:29:05.175Z,21.20
2022-10-29T17:32:32.482Z,21.20
2022-10-29T17:36:03.805Z,21.20
2022-10-29T17:39:28.957Z,21.10
2022-10-29T17:42:52.855Z,21.10
2022-10-29T17:46:18.025Z,21.00
2022-10-29T17:49:41.634Z,21.00
2022-10-29T17:53:05.508Z,21.00
2022-10-29T17:56:32.990Z,20.90
2022-10-29T17:59:56.406Z,20.90
2022-10-29T18:03:20.114Z,20.80
2022-10-29T18:06:43.666Z,20.80
2022-10-29T18:10:08.582Z,20.70
2022-10-29T18:13:35.598Z,20.70
2022-10-29T18:16:59.310Z,20.70
2022-10-29T18:20:22.680Z,20.60
2022-10-29T18:23:46.240Z,20.60
2022-10-29T18:27:09.606Z,20.50
2022-10-29T18:30:34.378Z,20.50
2022-10-29T18:33:58.762Z,20.50
2022-10-29T18:37:22.341Z,20.50
2022-10-29T18:40:45.736Z,20.40
2022-10-29T18:44:09.420Z,20.40
2022-10-29T18:47:34.256Z,20.40
2022-10-29T18:51:05.770Z,20.40
2022-10-29T18:54:29.200Z,20.30
2022-10-29T18:57:52.667Z,20.30
2022-10-29T19:01:19.221Z,20.30
2022-10-29T19:04:44.143Z,20.30
2022-10-29T19:08:11.862Z,20.30
2022-10-29T19:11:36.091Z,20.20
2022-10-29T19:14:59.675Z,20.20
2022-10-29T19:18:23.118Z,20.20
2022-10-29T19:21:47.938Z,20.10
2022-10-29T19:25:11.406Z,20.10
2022-10-29T19:28:36.141Z,20.10
2022-10-29T19:31:59.716Z,20.00
2022-10-29T19:35:23.487Z,20.00
2022-10-29T19:38:49.240Z,20.00
2022-10-29T19:42:12.717Z,19.90
2022-10-29T19:45:40.090Z,19.80
2022-10-29T19:49:03.653Z,19.80
2022-10-29T19:52:27.118Z,19.80
2022-10-29T19:55:52.919Z,19.80
2022-10-29T19:59:16.507Z,19.80
2022-10-29T20:02:40.374Z,19.70
2022-10-29T20:06:04.155Z,19.70
2022-10-29T20:09:27.654Z,19.60
2022-10-29T20:12:52.514Z,19.60
2022-10-29T20:16:20.462Z,19.50
2022-10-29T20:19:43.975Z,19.50
2022-10-29T20:23:07.495Z,19.50
2022-10-29T20:26:31.132Z,19.40
2022-10-29T20:29:56.444Z,19.40
2022-10-29T20:33:19.880Z,19.40
2022-10-29T20:36:46.224Z,19.40
2022-10-29T20:40:12.059Z,19.40
2022-10-29T20:43:35.662Z,19.40
2022-10-29T20:47:00.495Z,19.30
2022-10-29T20:50:23.947Z,19.30
2022-10-29T20:53:47.379Z,19.30
2022-10-29T20:57:10.860Z,19.30
2022-10-29T21:00:34.531Z,19.20
2022-10-29T21:03:59.308Z,19.20
2022-10-29T21:07:22.805Z,19.20
2022-10-29T21:10:46.214Z,19.10
2022-10-29T21:14:09.672Z,19.10
2022-10-29T21:17:34.880Z,19.10
2022-10-29T21:21:05.723Z,19.00
2022-10-29T21:24:29.274Z,19.00
2022-10-29T21:27:56.231Z,19.00
2022-10-29T21:31:21.258Z,19.00
2022-10-29T21:34:44.702Z,19.00
2022-10-29T21:38:09.576Z,19.00
2022-10-29T21:41:33.028Z,18.90
2022-10-29T21:44:56.466Z,18.90
2022-10-29T21:48:20.730Z,18.90
2022-10-29T21:51:44.145Z,18.90
2022-10-29T21:55:09.882Z,18.80
2022-10-29T21:58:34.263Z,18.80
2022-10-29T22:01:59.412Z,18.80
2022-10-29T22:05:22.918Z,18.80
2022-10-29T22:08:48.057Z,18.70
2022-10-29T22:12:12.792Z,18.90
2022-10-29T22:15:36.185Z,18.80
2022-10-29T22:18:59.715Z,18.70
2022-10-29T22:22:23.306Z,18.70
2022-10-29T22:25:51.851Z,18.70
2022-10-29T22:29:16.608Z,18.60
2022-10-29T22:32:39.994Z,18.60
2022-10-29T22:36:10.130Z,18.60
2022-10-29T22:39:33.506Z,18.60
2022-10-29T22:42:57.130Z,18.60
2022-10-29T22:46:23.470Z,18.60
2022-10-29T22:49:47.110Z,18.50
2022-10-29T22:53:10.500Z,18.50
2022-10-29T22:56:37.424Z,18.50
2022-10-29T23:00:00.768Z,18.40
2022-10-29T23:03:25.798Z,18.40
2022-10-29T23:06:49.262Z,18.40
2022-10-29T23:10:12.667Z,18.30
2022-10-29T23:13:36.291Z,18.30
2022-10-29T23:16:59.617Z,18.30
2022-10-29T23:20:24.393Z,18.20
2022-10-29T23:23:49.690Z,18.20
2022-10-29T23:27:13.077Z,18.20
2022-10-29T23:30:36.507Z,18.20
2022-10-29T23:33:59.916Z,18.20
2022-10-29T23:37:24.618Z,18.20
2022-10-29T23:40:49.206Z,18.20
2022-10-29T23:44:12.593Z,18.10
2022-10-29T23:47:37.002Z,18.10
2022-10-29T23:51:00.502Z,18.10
2022-10-29T23:54:25.301Z,18.10
2022-10-29T23:57:48.673Z,18.10
